sensor_id;sensor_type;location;lat;lon;timestamp;temperature;humidity
69677;DHT22;56914;51.058;9.326;2022-09-16T07:38:12;18.80;57.10
69677;DHT22;56914;51.058;9.326;2022-09-16T10:29:12;22.60;45.00
69677;DHT22;56914;51.058;9.326;2022-09-16T10:31:41;22.30;43.40
69677;DHT22;56914;51.058;9.326;2022-09-16T10:34:12;22.00;44.20
69677;DHT22;56914;51.058;9.326;2022-09-16T10:36:42;21.60;44.60
69677;DHT22;56914;51.058;9.326;2022-09-16T10:41:48;20.60;47.40
69677;DHT22;56914;51.058;9.326;2022-09-16T10:44:27;20.30;48.30
69677;DHT22;56914;51.058;9.326;2022-09-16T10:46:56;20.20;49.20
69677;DHT22;56914;51.058;9.326;2022-09-16T10:49:33;20.20;49.80
69677;DHT22;56914;51.058;9.326;2022-09-16T10:52:11;20.50;49.90
69677;DHT22;56914;51.058;9.326;2022-09-16T10:54:49;20.70;49.70
69677;DHT22;56914;51.058;9.326;2022-09-16T10:57:23;20.80;49.70
69677;DHT22;56914;51.058;9.326;2022-09-16T11:00:12;20.80;49.30
69677;DHT22;56914;51.058;9.326;2022-09-16T11:02:48;20.70;48.00
69677;DHT22;56914;51.058;9.326;2022-09-16T11:05:18;20.60;48.20
69677;DHT22;56914;51.058;9.326;2022-09-16T11:07:54;20.60;48.30
69677;DHT22;56914;51.058;9.326;2022-09-16T11:10:25;20.80;48.40
69677;DHT22;56914;51.058;9.326;2022-09-16T11:13:08;21.10;47.70
69677;DHT22;56914;51.058;9.326;2022-09-16T11:15:42;21.20;47.20
69677;DHT22;56914;51.058;9.326;2022-09-16T11:18:18;21.30;47.30
69677;DHT22;56914;51.058;9.326;2022-09-16T11:20:58;21.50;47.00
69677;DHT22;56914;51.058;9.326;2022-09-16T11:23:34;21.70;46.80
69677;DHT22;56914;51.058;9.326;2022-09-16T11:26:06;22.00;46.70
69677;DHT22;56914;51.058;9.326;2022-09-16T11:28:44;22.10;46.20
69677;DHT22;56914;51.058;9.326;2022-09-16T11:31:16;22.30;46.00
69677;DHT22;56914;51.058;9.326;2022-09-16T11:33:47;22.60;45.50
69677;DHT22;56914;51.058;9.326;2022-09-16T11:36:19;22.90;45.00
69677;DHT22;56914;51.058;9.326;2022-09-16T11:38:53;23.20;44.50
69677;DHT22;56914;51.058;9.326;2022-09-16T11:41:26;23.40;44.30
69677;DHT22;56914;51.058;9.326;2022-09-16T11:44:10;23.50;43.90
69677;DHT22;56914;51.058;9.326;2022-09-16T11:46:46;23.70;43.20
69677;DHT22;56914;51.058;9.326;2022-09-16T11:49:19;23.80;43.10
69677;DHT22;56914;51.058;9.326;2022-09-16T11:51:53;23.70;42.50
69677;DHT22;56914;51.058;9.326;2022-09-16T11:54:28;23.80;42.30
69677;DHT22;56914;51.058;9.326;2022-09-16T11:57:01;24.10;41.30
69677;DHT22;56914;51.058;9.326;2022-09-16T11:59:30;24.40;40.50
69677;DHT22;56914;51.058;9.326;2022-09-16T12:02:06;24.60;39.60
69677;DHT22;56914;51.058;9.326;2022-09-16T12:04:40;24.40;39.70
69677;DHT22;56914;51.058;9.326;2022-09-16T12:07:11;24.00;39.90
69677;DHT22;56914;51.058;9.326;2022-09-16T12:09:41;23.60;40.20
69677;DHT22;56914;51.058;9.326;2022-09-16T12:12:11;23.30;40.80
69677;DHT22;56914;51.058;9.326;2022-09-16T12:14:40;22.90;41.30
69677;DHT22;56914;51.058;9.326;2022-09-16T12:17:12;22.50;41.70
69677;DHT22;56914;51.058;9.326;2022-09-16T12:19:41;22.40;42.20
69677;DHT22;56914;51.058;9.326;2022-09-16T12:22:12;22.30;42.10
69677;DHT22;56914;51.058;9.326;2022-09-16T12:24:43;22.20;42.10
69677;DHT22;56914;51.058;9.326;2022-09-16T12:27:13;22.00;42.20
69677;DHT22;56914;51.058;9.326;2022-09-16T12:29:46;21.80;42.40
69677;DHT22;56914;51.058;9.326;2022-09-16T12:32:19;21.60;42.70
69677;DHT22;56914;51.058;9.326;2022-09-16T12:34:48;21.60;43.00
69677;DHT22;56914;51.058;9.326;2022-09-16T12:37:27;21.50;43.20
69677;DHT22;56914;51.058;9.326;2022-09-16T12:39:56;21.50;43.20
69677;DHT22;56914;51.058;9.326;2022-09-16T12:45:17;21.50;42.80
69677;DHT22;56914;51.058;9.326;2022-09-16T12:47:58;21.50;42.70
69677;DHT22;56914;51.058;9.326;2022-09-16T12:53:26;21.80;43.40
69677;DHT22;56914;51.058;9.326;2022-09-16T12:55:57;22.30;43.30
69677;DHT22;56914;51.058;9.326;2022-09-16T13:01:17;23.00;41.00
69677;DHT22;56914;51.058;9.326;2022-09-16T13:03:49;23.40;41.40
69677;DHT22;56914;51.058;9.326;2022-09-16T13:06:20;23.60;40.50
69677;DHT22;56914;51.058;9.326;2022-09-16T13:08:49;23.70;40.50
69677;DHT22;56914;51.058;9.326;2022-09-16T13:11:18;23.90;39.80
69677;DHT22;56914;51.058;9.326;2022-09-16T13:14:13;23.90;38.50
69677;DHT22;56914;51.058;9.326;2022-09-16T13:16:51;23.90;39.00
69677;DHT22;56914;51.058;9.326;2022-09-16T13:22:12;24.00;37.90
69677;DHT22;56914;51.058;9.326;2022-09-16T13:24:42;24.20;36.80
69677;DHT22;56914;51.058;9.326;2022-09-16T13:27:24;24.20;37.10
69677;DHT22;56914;51.058;9.326;2022-09-16T13:30:04;24.00;37.00
69677;DHT22;56914;51.058;9.326;2022-09-16T13:32:36;23.60;37.80
69677;DHT22;56914;51.058;9.326;2022-09-16T13:35:05;23.40;38.30
69677;DHT22;56914;51.058;9.326;2022-09-16T13:37:49;23.30;38.80
69677;DHT22;56914;51.058;9.326;2022-09-16T13:40:17;23.30;38.60
69677;DHT22;56914;51.058;9.326;2022-09-16T13:42:46;23.00;38.20
69677;DHT22;56914;51.058;9.326;2022-09-16T13:48:01;22.30;39.50
69677;DHT22;56914;51.058;9.326;2022-09-16T13:50:32;22.20;40.10
69677;DHT22;56914;51.058;9.326;2022-09-16T13:53:08;22.20;39.80
69677;DHT22;56914;51.058;9.326;2022-09-16T13:55:36;22.40;39.80
69677;DHT22;56914;51.058;9.326;2022-09-16T13:58:09;22.70;39.20
69677;DHT22;56914;51.058;9.326;2022-09-16T14:00:43;23.00;38.30
69677;DHT22;56914;51.058;9.326;2022-09-16T14:03:19;23.20;37.60
69677;DHT22;56914;51.058;9.326;2022-09-16T14:05:55;23.30;37.40
69677;DHT22;56914;51.058;9.326;2022-09-16T14:08:28;23.30;37.40
69677;DHT22;56914;51.058;9.326;2022-09-16T14:11:00;23.00;37.80
69677;DHT22;56914;51.058;9.326;2022-09-16T14:13:31;22.60;38.50
69677;DHT22;56914;51.058;9.326;2022-09-16T14:16:01;22.40;39.50
69677;DHT22;56914;51.058;9.326;2022-09-16T14:18:29;22.20;39.90
69677;DHT22;56914;51.058;9.326;2022-09-16T14:20:59;22.10;40.40
69677;DHT22;56914;51.058;9.326;2022-09-16T14:23:30;22.20;40.00
69677;DHT22;56914;51.058;9.326;2022-09-16T14:26:08;22.30;39.90
69677;DHT22;56914;51.058;9.326;2022-09-16T14:28:36;22.50;39.70
69677;DHT22;56914;51.058;9.326;2022-09-16T14:31:05;22.70;39.70
69677;DHT22;56914;51.058;9.326;2022-09-16T14:33:34;23.00;39.50
69677;DHT22;56914;51.058;9.326;2022-09-16T14:36:07;23.10;38.50
69677;DHT22;56914;51.058;9.326;2022-09-16T14:38:39;23.20;37.50
69677;DHT22;56914;51.058;9.326;2022-09-16T14:41:15;23.20;36.60
69677;DHT22;56914;51.058;9.326;2022-09-16T14:43:45;23.30;36.70
69677;DHT22;56914;51.058;9.326;2022-09-16T14:46:13;23.10;36.10
69677;DHT22;56914;51.058;9.326;2022-09-16T14:48:42;22.90;34.80
69677;DHT22;56914;51.058;9.326;2022-09-16T14:51:19;22.60;34.70
69677;DHT22;56914;51.058;9.326;2022-09-16T14:53:57;22.30;34.70
69677;DHT22;56914;51.058;9.326;2022-09-16T14:56:52;22.00;35.30
69677;DHT22;56914;51.058;9.326;2022-09-16T14:59:20;21.80;35.60
69677;DHT22;56914;51.058;9.326;2022-09-16T15:01:55;21.80;36.10
69677;DHT22;56914;51.058;9.326;2022-09-16T15:04:25;21.70;36.30
69677;DHT22;56914;51.058;9.326;2022-09-16T15:07:05;21.90;36.70
69677;DHT22;56914;51.058;9.326;2022-09-16T15:09:40;22.10;36.50
69677;DHT22;56914;51.058;9.326;2022-09-16T15:12:15;22.10;36.70
69677;DHT22;56914;51.058;9.326;2022-09-16T15:14:46;22.10;37.00
69677;DHT22;56914;51.058;9.326;2022-09-16T15:17:15;22.00;36.90
69677;DHT22;56914;51.058;9.326;2022-09-16T15:19:49;21.90;37.20
69677;DHT22;56914;51.058;9.326;2022-09-16T15:22:18;21.80;37.60
69677;DHT22;56914;51.058;9.326;2022-09-16T15:24:49;21.60;37.70
69677;DHT22;56914;51.058;9.326;2022-09-16T15:27:27;21.40;37.90
69677;DHT22;56914;51.058;9.326;2022-09-16T15:29:58;21.30;38.50
69677;DHT22;56914;51.058;9.326;2022-09-16T15:32:31;21.30;38.60
69677;DHT22;56914;51.058;9.326;2022-09-16T15:35:10;21.20;39.00
69677;DHT22;56914;51.058;9.326;2022-09-16T15:37:38;21.20;39.20
69677;DHT22;56914;51.058;9.326;2022-09-16T15:40:17;21.20;39.40
69677;DHT22;56914;51.058;9.326;2022-09-16T15:42:46;21.10;39.50
69677;DHT22;56914;51.058;9.326;2022-09-16T15:45:15;20.90;39.70
69677;DHT22;56914;51.058;9.326;2022-09-16T15:47:49;20.90;39.90
69677;DHT22;56914;51.058;9.326;2022-09-16T15:50:18;20.90;40.10
69677;DHT22;56914;51.058;9.326;2022-09-16T15:52:49;21.00;40.20
69677;DHT22;56914;51.058;9.326;2022-09-16T15:55:31;21.00;40.00
69677;DHT22;56914;51.058;9.326;2022-09-16T15:58:01;21.10;39.80
69677;DHT22;56914;51.058;9.326;2022-09-16T16:00:35;21.20;39.80
69677;DHT22;56914;51.058;9.326;2022-09-16T16:03:19;21.20;39.90
69677;DHT22;56914;51.058;9.326;2022-09-16T16:05:48;21.20;40.10
69677;DHT22;56914;51.058;9.326;2022-09-16T16:11:05;21.10;40.40
69677;DHT22;56914;51.058;9.326;2022-09-16T16:13:34;21.00;40.50
69677;DHT22;56914;51.058;9.326;2022-09-16T16:16:02;20.80;40.20
69677;DHT22;56914;51.058;9.326;2022-09-16T16:18:30;20.60;40.50
69677;DHT22;56914;51.058;9.326;2022-09-16T16:21:02;20.50;40.30
69677;DHT22;56914;51.058;9.326;2022-09-16T16:23:31;20.40;40.50
69677;DHT22;56914;51.058;9.326;2022-09-16T16:25:59;20.30;40.80
69677;DHT22;56914;51.058;9.326;2022-09-16T16:28:28;20.30;41.20
69677;DHT22;56914;51.058;9.326;2022-09-16T16:31:06;20.20;41.40
69677;DHT22;56914;51.058;9.326;2022-09-16T16:33:34;20.10;41.50
69677;DHT22;56914;51.058;9.326;2022-09-16T16:36:01;20.10;41.10
69677;DHT22;56914;51.058;9.326;2022-09-16T16:38:30;19.90;40.50
69677;DHT22;56914;51.058;9.326;2022-09-16T16:40:58;19.80;40.50
69677;DHT22;56914;51.058;9.326;2022-09-16T16:43:28;19.70;40.60
69677;DHT22;56914;51.058;9.326;2022-09-16T16:45:56;19.70;40.90
69677;DHT22;56914;51.058;9.326;2022-09-16T16:48:25;19.70;41.00
69677;DHT22;56914;51.058;9.326;2022-09-16T16:50:54;19.60;41.10
69677;DHT22;56914;51.058;9.326;2022-09-16T16:53:21;19.60;41.50
69677;DHT22;56914;51.058;9.326;2022-09-16T16:55:49;19.50;41.90
69677;DHT22;56914;51.058;9.326;2022-09-16T16:58:17;19.50;42.20
69677;DHT22;56914;51.058;9.326;2022-09-16T17:00:47;19.40;42.40
69677;DHT22;56914;51.058;9.326;2022-09-16T17:03:15;19.30;42.60
69677;DHT22;56914;51.058;9.326;2022-09-16T17:05:42;19.30;42.70
69677;DHT22;56914;51.058;9.326;2022-09-16T17:08:10;19.10;42.70
69677;DHT22;56914;51.058;9.326;2022-09-16T17:10:38;19.10;43.10
69677;DHT22;56914;51.058;9.326;2022-09-16T17:13:07;19.00;43.40
69677;DHT22;56914;51.058;9.326;2022-09-16T17:15:35;18.90;43.90
69677;DHT22;56914;51.058;9.326;2022-09-16T17:18:04;18.70;44.70
69677;DHT22;56914;51.058;9.326;2022-09-16T17:20:32;18.50;45.40
69677;DHT22;56914;51.058;9.326;2022-09-16T17:23:00;18.20;46.10
69677;DHT22;56914;51.058;9.326;2022-09-16T17:25:27;18.00;46.90
69677;DHT22;56914;51.058;9.326;2022-09-16T17:27:55;17.80;47.40
69677;DHT22;56914;51.058;9.326;2022-09-16T17:30:23;17.60;47.70
69677;DHT22;56914;51.058;9.326;2022-09-16T17:32:51;17.60;48.00
69677;DHT22;56914;51.058;9.326;2022-09-16T17:35:20;17.40;48.30
69677;DHT22;56914;51.058;9.326;2022-09-16T17:37:48;17.40;48.70
69677;DHT22;56914;51.058;9.326;2022-09-16T17:40:15;17.30;48.70
69677;DHT22;56914;51.058;9.326;2022-09-16T17:42:44;17.30;48.90
69677;DHT22;56914;51.058;9.326;2022-09-16T17:45:15;17.10;49.10
69677;DHT22;56914;51.058;9.326;2022-09-16T17:47:43;17.10;49.20
69677;DHT22;56914;51.058;9.326;2022-09-16T17:50:10;17.10;49.30
69677;DHT22;56914;51.058;9.326;2022-09-16T17:52:40;17.00;49.30
69677;DHT22;56914;51.058;9.326;2022-09-16T17:55:08;17.00;49.50
